Valley City, ND

4:00 PM CST on December 09, 2019 (GMT -0600)
Valley City

Weather History for KBAC - October, 2019

Change the Weather History Date:

Thursday, October 24, 2019

  Actual Average (KJMS) Record (KJMS)
Temperature  
Mean Temperature 34 °F -  
Max Temperature 46 °F 53 °F 81 °F (1989)
Min Temperature 23 °F 31 °F 4 °F (1917)
Degree Days  
Heating Degree Days 30    
Moisture  
Dew Point 28 °F    
Average Humidity 84    
Maximum Humidity 100    
Minimum Humidity 46    
Precipitation  
Precipitation 0.00 in - - ()
Sea Level Pressure  
Sea Level Pressure 30.27 in    
Wind  
Wind Speed 7 mph (WSW)    
Max Wind Speed 12 mph    
Max Gust Speed 17 mph    
Visibility 10 miles    
Events      
Averages and records for this station are not official NWS values.
T = Trace of Precipitation, MM = Missing Value Source: NWS Daily Summary

Daily Weather History Graph

Daily Weather History Graph

Search for Another Location

Airport or City:

Astronomy

Oct. 24, 2019 Rise Set
Actual Time 8:02 AM CDT 6:29 PM CDT
Civil Twilight 7:31 AM CDT 7:00 PM CDT
Nautical Twilight 6:55 AM CDT 7:35 PM CDT
Astronomical Twilight 6:20 AM CDT 8:10 PM CDT
Moon 3:11 AM CDT (10/24) 5:17 PM CDT (10/24)
Length of Visible Light 11h 28m
Length of Day
10h 26m
Waning Crescent, 16% of the Moon is Illuminated
Oct 24
Waning Crescent
Oct 27
New
Nov 4
First Quarter
Nov 12
Full
Nov 19
Last Quarter

Hourly Weather History & Observations

Time (CDT) Temp. Windchill Dew Point Humidity Pressure Visibility Wind Dir Wind Speed Gust Speed Precip Events Conditions
12:15 AM 28.4 °F 21.2 °F 26.6 °F 93% 30.21 in 10.0 mi WSW 6.9 mph - N/A   Scattered Clouds
12:35 AM 28.4 °F 22.2 °F 26.6 °F 93% 30.21 in 10.0 mi West 5.8 mph - N/A   Mostly Cloudy
12:55 AM 28.4 °F 21.2 °F 26.6 °F 93% 30.21 in 10.0 mi West 6.9 mph - N/A   Clear
1:15 AM 28.4 °F 19.7 °F 26.6 °F 93% 30.22 in 10.0 mi WNW 9.2 mph - N/A   Clear
1:35 AM 28.4 °F 19.7 °F 26.6 °F 93% 30.22 in 10.0 mi WNW 9.2 mph - N/A   Clear
1:55 AM 28.4 °F 19.7 °F 26.6 °F 93% 30.23 in 10.0 mi NW 9.2 mph - N/A   Clear
2:15 AM 26.6 °F 19.1 °F 26.6 °F 100% 30.24 in 10.0 mi NW 6.9 mph - N/A   Clear
2:35 AM 26.6 °F 20.0 °F 26.6 °F 100% 30.24 in 10.0 mi NW 5.8 mph - N/A   Clear
2:55 AM 26.6 °F 19.1 °F 26.6 °F 100% 30.24 in 10.0 mi NW 6.9 mph - N/A   Clear
3:15 AM 24.8 °F 16.1 °F 24.8 °F 100% 30.25 in 10.0 mi NW 8.1 mph - N/A   Clear
3:35 AM 24.8 °F 16.9 °F 24.8 °F 100% 30.26 in 10.0 mi NW 6.9 mph - N/A   Clear
3:55 AM 24.8 °F 16.9 °F 24.8 °F 100% 30.27 in 10.0 mi WNW 6.9 mph - N/A   Clear
4:15 AM 24.8 °F 16.1 °F 24.8 °F 100% 30.28 in 10.0 mi West 8.1 mph - N/A   Clear
4:35 AM 24.8 °F 15.3 °F 24.8 °F 100% 30.28 in 10.0 mi WNW 9.2 mph - N/A   Clear
4:55 AM 24.8 °F 16.1 °F 24.8 °F 100% 30.28 in 10.0 mi WNW 8.1 mph - N/A   Clear
5:15 AM 26.6 °F 17.5 °F 26.6 °F 100% 30.29 in 10.0 mi WNW 9.2 mph - N/A   Clear
5:35 AM 24.8 °F 16.1 °F 24.8 °F 100% 30.28 in 10.0 mi WNW 8.1 mph - N/A   Clear
5:55 AM 24.8 °F 14.6 °F 24.8 °F 100% 30.29 in 10.0 mi WNW 10.4 mph - N/A   Clear
6:15 AM 23.0 °F 13.9 °F 23.0 °F 100% 30.30 in 10.0 mi WNW 8.1 mph - N/A   Clear
6:35 AM 24.8 °F 16.1 °F 24.8 °F 100% 30.31 in 10.0 mi WNW 8.1 mph - N/A   Clear
6:55 AM 24.8 °F 15.3 °F 24.8 °F 100% 30.31 in 10.0 mi WNW 9.2 mph - N/A   Clear
7:15 AM 24.8 °F 15.3 °F 24.8 °F 100% 30.31 in 10.0 mi West 9.2 mph - N/A   Clear
7:35 AM 23.0 °F 13.1 °F 23.0 °F 100% 30.32 in 10.0 mi West 9.2 mph - N/A   Clear
7:55 AM 24.8 °F 15.3 °F 24.8 °F 100% 30.32 in 10.0 mi WNW 9.2 mph - N/A   Clear
8:15 AM 23.0 °F - 23.0 °F 100% 30.32 in 10.0 mi Calm Calm - N/A   Clear
8:35 AM 24.8 °F - 24.8 °F 100% 30.32 in 10.0 mi Calm Calm - N/A   Clear
8:55 AM 24.8 °F - 24.8 °F 100% 30.33 in 10.0 mi Calm Calm - N/A   Clear
9:15 AM 28.4 °F - 28.4 °F 100% 30.34 in 10.0 mi Calm Calm - N/A   Clear
9:35 AM 30.2 °F - 28.4 °F 93% 30.34 in 10.0 mi Calm Calm - N/A   Clear
9:55 AM 30.2 °F - 30.2 °F 100% 30.34 in 10.0 mi Calm Calm - N/A   Clear
10:15 AM 30.2 °F 25.4 °F 30.2 °F 100% 30.34 in 10.0 mi South 4.6 mph - N/A   Clear
10:35 AM 32.0 °F 27.5 °F 32.0 °F 100% 30.34 in 10.0 mi South 4.6 mph - N/A   Clear
10:55 AM 33.8 °F 28.6 °F 32.0 °F 93% 30.33 in 10.0 mi SSW 5.8 mph - N/A   Clear
11:15 AM 35.6 °F 29.2 °F 32.0 °F 87% 30.33 in 10.0 mi SW 8.1 mph - N/A   Clear
11:35 AM 37.4 °F 32.1 °F 30.2 °F 75% 30.33 in 10.0 mi SSW 6.9 mph - N/A   Clear
11:55 AM 37.4 °F 31.4 °F 26.6 °F 65% 30.33 in 10.0 mi SW 8.1 mph - N/A   Clear
12:15 PM 39.2 °F 33.6 °F 26.6 °F 61% 30.32 in 10.0 mi SW 8.1 mph - N/A   Clear
12:35 PM 39.2 °F 33.0 °F 26.6 °F 61% 30.32 in 10.0 mi SW 9.2 mph - N/A   Clear
12:55 PM 41.0 °F 35.8 °F 26.6 °F 57% 30.31 in 10.0 mi WSW 8.1 mph - N/A   Clear
1:15 PM 41.0 °F 35.2 °F 24.8 °F 53% 30.31 in 10.0 mi WSW 9.2 mph - N/A   Clear
1:35 PM 41.0 °F 36.4 °F 24.8 °F 53% 30.30 in 10.0 mi West 6.9 mph 12.7 mph N/A   Clear
1:55 PM 42.8 °F 37.5 °F 24.8 °F 49% 30.30 in 10.0 mi SW 9.2 mph - N/A   Clear
2:15 PM 41.0 °F 36.4 °F 24.8 °F 53% 30.29 in 10.0 mi SW 6.9 mph - N/A   Clear
2:35 PM 42.8 °F 38.0 °F 26.6 °F 53% 30.28 in 10.0 mi SSW 8.1 mph - N/A   Clear
3:15 PM 44.6 °F 38.8 °F 26.6 °F 49% 30.26 in 10.0 mi SW 11.5 mph - N/A   Clear
3:35 PM 44.6 °F 40.2 °F 26.6 °F 49% 30.26 in 10.0 mi SW 8.1 mph - N/A   Clear
3:55 PM 46.4 °F 41.5 °F 26.6 °F 46% 30.25 in 10.0 mi SSW 10.4 mph - N/A   Clear
4:15 PM 44.6 °F 39.7 °F 28.4 °F 53% 30.26 in 10.0 mi South 9.2 mph 17.3 mph N/A   Scattered Clouds
4:55 PM 42.8 °F 38.6 °F 30.2 °F 61% 30.25 in 10.0 mi SSW 6.9 mph 12.7 mph N/A   Overcast
5:15 PM 42.8 °F 39.3 °F 30.2 °F 61% 30.24 in 10.0 mi SSW 5.8 mph - N/A   Overcast
5:35 PM 42.8 °F 39.3 °F 30.2 °F 61% 30.23 in 10.0 mi SW 5.8 mph - N/A   Overcast
5:55 PM 42.8 °F 38.0 °F 30.2 °F 61% 30.22 in 10.0 mi SW 8.1 mph - N/A   Overcast
6:15 PM 42.8 °F 37.5 °F 30.2 °F 61% 30.22 in 10.0 mi SW 9.2 mph - N/A   Overcast
6:35 PM 42.8 °F 37.5 °F 32.0 °F 66% 30.22 in 10.0 mi SW 9.2 mph - N/A   Overcast
6:55 PM 41.0 °F 35.2 °F 32.0 °F 70% 30.23 in 10.0 mi SW 9.2 mph - N/A   Overcast
7:15 PM 41.0 °F 35.2 °F 32.0 °F 70% 30.23 in 10.0 mi SW 9.2 mph - N/A   Overcast
7:35 PM 41.0 °F 34.7 °F 32.0 °F 70% 30.24 in 10.0 mi SW 10.4 mph - N/A   Overcast
7:55 PM 41.0 °F 35.8 °F 33.8 °F 76% 30.24 in 10.0 mi SW 8.1 mph - N/A   Overcast
8:15 PM 41.0 °F 35.2 °F 33.8 °F 76% 30.24 in 10.0 mi SW 9.2 mph - N/A   Overcast
8:35 PM 39.2 °F 33.6 °F 33.8 °F 81% 30.24 in 10.0 mi SW 8.1 mph - N/A   Overcast
8:55 PM 39.2 °F 34.2 °F 35.6 °F 87% 30.23 in 10.0 mi SSW 6.9 mph - N/A   Overcast
9:15 PM 37.4 °F 30.8 °F 33.8 °F 87% 30.23 in 10.0 mi SSW 9.2 mph - N/A   Mostly Cloudy
9:35 PM 35.6 °F 28.6 °F 33.8 °F 93% 30.22 in 10.0 mi SSW 9.2 mph - N/A   Partly Cloudy
9:55 PM 35.6 °F 27.5 °F 33.8 °F 93% 30.21 in 10.0 mi SSW 11.5 mph - N/A   Clear
10:15 PM 33.8 °F 25.8 °F 33.8 °F 100% 30.21 in 10.0 mi SW 10.4 mph - N/A   Clear
10:35 PM 33.8 °F 25.8 °F 32.0 °F 93% 30.20 in 10.0 mi SSW 10.4 mph - N/A   Clear
10:55 PM 32.0 °F 23.6 °F 32.0 °F 100% 30.21 in 10.0 mi SW 10.4 mph - N/A   Partly Cloudy
11:15 PM 32.0 °F 23.6 °F 32.0 °F 100% 30.21 in 10.0 mi SSW 10.4 mph - N/A   Partly Cloudy
11:35 PM 32.0 °F 23.6 °F 32.0 °F 100% 30.22 in 10.0 mi SW 10.4 mph - N/A   Partly Cloudy
11:55 PM 32.0 °F 23.6 °F 32.0 °F 100% 30.21 in 10.0 mi SW 10.4 mph - N/A   Partly Cloudy